File outlier.log content, last update Tuesday June 30 2020, 15:48:02


Thu, 04 Jul 2019 11:59:01 +0900 [1562209087 Temp=-144.11*C Humidity=0.00% Pressure=nanPa] -> humidity outlier [0.00].
Thu, 04 Jul 2019 12:02:01 +0900 [1562209266 Temp=21.65*C Humidity=100.00% Pressure=100370.34Pa] -> temperature outlier [21.65].
Thu, 04 Jul 2019 12:02:01 +0900 [1562209266 Temp=21.65*C Humidity=100.00% Pressure=100370.34Pa] -> humidity outlier [100.00].
Thu, 04 Jul 2019 12:09:01 +0900 [1562209686 Temp=-2.00*C Humidity=0.00% Pressure=100002.16Pa] -> temperature outlier [-2.00].
Thu, 04 Jul 2019 12:09:01 +0900 [1562209686 Temp=-2.00*C Humidity=0.00% Pressure=100002.16Pa] -> humidity outlier [0.00].
Thu, 04 Jul 2019 12:10:01 +0900 [1562209746 Temp=21.83*C Humidity=100.00% Pressure=100402.00Pa] -> temperature outlier [21.83].
Thu, 04 Jul 2019 12:10:01 +0900 [1562209746 Temp=21.83*C Humidity=100.00% Pressure=100402.00Pa] -> humidity outlier [100.00].
Thu, 04 Jul 2019 12:15:02 +0900 [1562210046 Temp=-2.00*C Humidity=0.00% Pressure=51200000.00Pa] -> temperature outlier [-2.00].
Thu, 04 Jul 2019 12:15:02 +0900 [1562210046 Temp=-2.00*C Humidity=0.00% Pressure=51200000.00Pa] -> humidity outlier [0.00].
Thu, 04 Jul 2019 12:15:02 +0900 [1562210046 Temp=-2.00*C Humidity=0.00% Pressure=51200000.00Pa] -> pressure outlier [51200000.00].
Thu, 04 Jul 2019 12:17:01 +0900 [1562210166 Temp=21.74*C Humidity=100.00% Pressure=100403.99Pa] -> temperature outlier [21.74].
Thu, 04 Jul 2019 12:17:01 +0900 [1562210166 Temp=21.74*C Humidity=100.00% Pressure=100403.99Pa] -> humidity outlier [100.00].
Thu, 04 Jul 2019 12:19:01 +0900 [1562210286 Temp=-143.99*C Humidity=0.00% Pressure=108570.07Pa] -> temperature outlier [-143.99].
Thu, 04 Jul 2019 12:19:01 +0900 [1562210286 Temp=-143.99*C Humidity=0.00% Pressure=108570.07Pa] -> humidity outlier [0.00].
Thu, 04 Jul 2019 12:20:01 +0900 [1562210346 Temp=-143.99*C Humidity=0.00% Pressure=135159.42Pa] -> temperature outlier [-143.99].
Thu, 04 Jul 2019 12:20:01 +0900 [1562210346 Temp=-143.99*C Humidity=0.00% Pressure=135159.42Pa] -> pressure outlier [135159.42].
Thu, 04 Jul 2019 12:23:01 +0900 [1562210526 Temp=21.67*C Humidity=100.00% Pressure=100409.71Pa] -> temperature outlier [21.67].
Thu, 04 Jul 2019 12:23:01 +0900 [1562210526 Temp=21.67*C Humidity=100.00% Pressure=100409.71Pa] -> humidity outlier [100.00].
Thu, 04 Jul 2019 12:23:01 +0900 [1562210526 Temp=21.67*C Humidity=100.00% Pressure=100409.71Pa] -> pressure outlier [100409.71].
Thu, 04 Jul 2019 12:24:02 +0900 [1562210587 Temp=-2.00*C Humidity=0.00% Pressure=100002.16Pa] -> temperature outlier [-2.00].
Thu, 04 Jul 2019 12:24:02 +0900 [1562210587 Temp=-2.00*C Humidity=0.00% Pressure=100002.16Pa] -> humidity outlier [0.00].
Thu, 04 Jul 2019 12:25:01 +0900 [1562210646 Temp=-143.99*C Humidity=0.00% Pressure=100377.22Pa] -> temperature outlier [-143.99].
Thu, 04 Jul 2019 12:27:01 +0900 [1562210766 Temp=21.66*C Humidity=100.00% Pressure=100401.08Pa] -> temperature outlier [21.66].
Thu, 04 Jul 2019 12:27:01 +0900 [1562210766 Temp=21.66*C Humidity=100.00% Pressure=100401.08Pa] -> humidity outlier [100.00].
Thu, 04 Jul 2019 12:38:01 +0900 [1562211426 Temp=21.87*C Humidity=0.00% Pressure=99163.55Pa] -> humidity outlier [0.00].
Thu, 04 Jul 2019 12:39:02 +0900 [1562211486 Temp=21.87*C Humidity=100.00% Pressure=100443.80Pa] -> humidity outlier [100.00].
Thu, 04 Jul 2019 12:40:01 +0900 [1562211546 Temp=-2.00*C Humidity=0.00% Pressure=nanPa] -> temperature outlier [-2.00].
Thu, 04 Jul 2019 12:40:02 +0900 [1562211546 Temp=-2.00*C Humidity=0.00% Pressure=nanPa] -> humidity outlier [0.00].
Thu, 04 Jul 2019 12:42:01 +0900 [1562211666 Temp=21.88*C Humidity=100.00% Pressure=100457.77Pa] -> temperature outlier [21.88].
Thu, 04 Jul 2019 12:42:01 +0900 [1562211666 Temp=21.88*C Humidity=100.00% Pressure=100457.77Pa] -> humidity outlier [100.00].
Mon, 09 Sep 2019 03:51:01 +0900 [1567968606 Temp=32.99*C Humidity=100.00% Pressure=97979.65Pa] -> temperature outlier [32.99].
Mon, 09 Sep 2019 03:52:01 +0900 [1567968666 Temp=36.68*C Humidity=75.27% Pressure=98005.13Pa] -> humidity outlier [75.27].
Mon, 09 Sep 2019 03:53:01 +0900 [1567968726 Temp=28.66*C Humidity=98.21% Pressure=98031.36Pa] -> temperature outlier [28.66].
Mon, 09 Sep 2019 03:53:01 +0900 [1567968726 Temp=28.66*C Humidity=98.21% Pressure=98031.36Pa] -> humidity outlier [98.21].
Sun, 19 Jan 2020 09:25:01 +0900 [1579393446 Temp=20.96*C Humidity=34.14% Pressure=101447.37Pa] -> temperature outlier [20.96].
Sun, 19 Jan 2020 09:25:01 +0900 [1579393446 Temp=20.96*C Humidity=34.14% Pressure=101447.37Pa] -> humidity outlier [34.14].
Mon, 17 Feb 2020 15:06:02 +0900 [1581919507 Temp=23.56*C Humidity=27.05% Pressure=99791.22Pa] -> temperature outlier [23.56].
Mon, 17 Feb 2020 15:06:02 +0900 [1581919507 Temp=23.56*C Humidity=27.05% Pressure=99791.22Pa] -> humidity outlier [27.05].
Wed, 29 Apr 2020 11:28:01 +0900 [1588127266 Temp=28.09*C Humidity=32.16% Pressure=101661.05Pa] -> temperature outlier [28.09].
Tue, 30 Jun 2020 15:48:02 +0900 [1593499626 Temp=31.36*C Humidity=81.98% Pressure=100109.10Pa] -> humidity outlier [81.98].
Showing last 40 lines from file [/srv/app/pi-web01/chroot/pi-ws01/log/outlier.log] (205 total lines).

Station Logs

File Name
sensor.txt
backup.txt
outage.log
outlier.log
rrd.log
pi-solar.log
Display Limit